Data Viewer
| City | State | Eastern Time | Source | Temp | DewPt | RH | BP | 5 Min Precip | Wind Speed | Wind Dir | 5 Min Wind Max | 5 Min Wind Max Dir |
|---|---|---|---|---|---|---|---|---|---|---|---|---|
| Mount Pocono | PA | 2026-05-09 02:40 | ASOS | 46 | 43 | 87 | 29.90 | 0 | N | |||
| Mount Pocono | PA | 2026-05-09 08:55 | ASOS | 46 | 43 | 87 | 29.89 | 6 | E | |||
| Mount Pocono | PA | 2026-05-09 10:25 | ASOS | 48 | 46 | 93 | 29.89 | 6 | SE | |||
| Mount Pocono | PA | 2026-05-09 10:15 | ASOS | 46 | 45 | 93 | 29.89 | 7 | ESE | |||
| Mount Pocono | PA | 2026-05-09 10:05 | ASOS | 46 | 45 | 93 | 29.89 | 7 | ESE | |||
| Mount Pocono | PA | 2026-05-09 09:53 | ASOS | 47 | 45 | 93 | 29.87 | 3 | E | |||
| Mount Pocono | PA | 2026-05-09 09:50 | ASOS | 46 | 45 | 93 | 29.88 | 6 | E | |||
| Mount Pocono | PA | 2026-05-09 09:40 | ASOS | 46 | 45 | 93 | 29.88 | 6 | ESE | |||
| Mount Pocono | PA | 2026-05-09 09:25 | ASOS | 48 | 45 | 87 | 29.87 | 7 | E | |||
| Mount Pocono | PA | 2026-05-09 09:15 | ASOS | 46 | 43 | 87 | 29.88 | 6 | E | |||
| Mount Pocono | PA | 2026-05-09 09:10 | ASOS | 46 | 43 | 87 | 29.88 | 7 | ESE | |||
| Mount Pocono | PA | 2026-05-09 09:05 | ASOS | 46 | 43 | 87 | 29.89 | 8 | ESE | |||
| Mount Pocono | PA | 2026-05-09 08:50 | ASOS | 46 | 43 | 87 | 29.90 | 6 | ESE | |||
| Mount Pocono | PA | 2026-05-09 10:40 | ASOS | 48 | 46 | 93 | 29.89 | 5 | SSW | |||
| Mount Pocono | PA | 2026-05-09 08:40 | ASOS | 46 | 43 | 87 | 29.89 | 6 | ESE | |||
| Mount Pocono | PA | 2026-05-09 08:25 | ASOS | 48 | 41 | 76 | 29.89 | 7 | ESE | |||
| Mount Pocono | PA | 2026-05-09 08:20 | ASOS | 48 | 41 | 76 | 29.88 | 5 | E | |||
| Mount Pocono | PA | 2026-05-09 08:15 | ASOS | 48 | 41 | 76 | 29.89 | 8 | ESE | |||
| Mount Pocono | PA | 2026-05-09 08:05 | ASOS | 48 | 41 | 76 | 29.89 | 7 | ESE | |||
| Mount Pocono | PA | 2026-05-09 07:53 | ASOS | 48 | 41 | 77 | 29.88 | 8 | ESE | |||
| Mount Pocono | PA | 2026-05-09 07:50 | ASOS | 48 | 41 | 76 | 29.88 | 9 | ESE | |||
| Mount Pocono | PA | 2026-05-09 07:40 | ASOS | 48 | 41 | 76 | 29.88 | 8 | S | |||
| Mount Pocono | PA | 2026-05-09 07:35 | ASOS | 48 | 41 | 76 | 29.87 | 3 | ESE | |||
| Mount Pocono | PA | 2026-05-09 07:30 | ASOS | 46 | 41 | 81 | 29.88 | 7 | E | |||
| Mount Pocono | PA | 2026-05-09 07:25 | ASOS | 48 | 41 | 76 | 29.87 | 10 | E | |||
| Mount Pocono | PA | 2026-05-09 10:38 | ASOS | 48 | 46 | 93 | 29.89 | 6 | SSW | |||
| Mount Pocono | PA | 2026-05-09 10:50 | ASOS | 48 | 46 | 93 | 29.89 | 7 | S | |||
| Mount Pocono | PA | 2026-05-09 07:15 | ASOS | 46 | 43 | 87 | 29.88 | 6 | ESE | |||
| Mount Pocono | PA | 2026-05-09 18:53 | ASOS | 53 | 47 | 80 | 29.80 | 10 | WSW | |||
| Mount Pocono | PA | 2026-05-10 02:30 | ASOS | 48 | 48 | 100 | 29.88 | 10 | WNW | |||
| Mount Pocono | PA | 2026-05-10 02:25 | ASOS | 48 | 48 | 100 | 29.88 | 13 | W | |||
| Mount Pocono | PA | 2026-05-10 02:20 | ASOS | 48 | 48 | 100 | 29.87 | 7 | W | |||
| Mount Pocono | PA | 2026-05-10 02:16 | ASOS | 49 | 48 | 97 | 29.87 | 9 | WSW | |||
| Mount Pocono | PA | 2026-05-10 02:15 | ASOS | 48 | 48 | 100 | 29.87 | 8 | WSW | |||
| Mount Pocono | PA | 2026-05-10 01:53 | ASOS | 49 | 48 | 97 | 29.87 | 6 | WSW | |||
| Mount Pocono | PA | 2026-05-09 23:53 | ASOS | 46 | 46 | 100 | 29.87 | 0 | N | |||
| Mount Pocono | PA | 2026-05-09 22:53 | ASOS | 48 | 47 | 96 | 29.85 | 3 | SSW | |||
| Mount Pocono | PA | 2026-05-09 22:05 | ASOS | 48 | 48 | 100 | 29.86 | 6 | SSW | |||
| Mount Pocono | PA | 2026-05-09 21:38 | ASOS | 48 | 47 | 96 | 29.85 | 6 | S | |||
| Mount Pocono | PA | 2026-05-09 20:53 | ASOS | 48 | 47 | 96 | 29.84 | 3 | S | |||
| Mount Pocono | PA | 2026-05-09 17:53 | ASOS | 53 | 48 | 83 | 29.80 | 10 | WSW | |||
| Mount Pocono | PA | 2026-05-09 10:53 | ASOS | 48 | 46 | 93 | 29.89 | 8 | SSW | |||
| Mount Pocono | PA | 2026-05-09 17:16 | ASOS | 52 | 48 | 86 | 29.81 | 13 | WSW | |||
| Mount Pocono | PA | 2026-05-09 16:53 | ASOS | 51 | 48 | 89 | 29.82 | 12 | WSW | |||
| Mount Pocono | PA | 2026-05-09 14:53 | ASOS | 49 | 46 | 90 | 29.86 | 8 | WSW | |||
| Mount Pocono | PA | 2026-05-09 14:50 | ASOS | 48 | 46 | 93 | 29.86 | 10 | WSW | |||
| Mount Pocono | PA | 2026-05-09 13:53 | ASOS | 49 | 47 | 93 | 29.87 | 13 | SW | |||
| Mount Pocono | PA | 2026-05-09 13:18 | ASOS | 49 | 47 | 93 | 29.87 | 7 | SSW | |||
| Mount Pocono | PA | 2026-05-09 12:53 | ASOS | 50 | 47 | 89 | 29.86 | 9 | SSW | |||
| Mount Pocono | PA | 2026-05-09 11:53 | ASOS | 49 | 46 | 90 | 29.88 | 9 | S | |||
| Mount Pocono | PA | 2026-05-09 11:15 | ASOS | 48 | 46 | 93 | 29.87 | 6 | SE | |||
| Mount Pocono | PA | 2026-05-09 11:05 | ASOS | 48 | 46 | 93 | 29.88 | 6 | S | |||
| Mount Pocono | PA | 2026-05-09 11:00 | ASOS | 48 | 46 | 93 | 29.88 | 5 | SSE | |||
| Mount Pocono | PA | 2026-05-09 07:20 | ASOS | 46 | 43 | 87 | 29.89 | 7 | SE | |||
| Mount Pocono | PA | 2026-05-09 07:10 | ASOS | 46 | 43 | 87 | 29.89 | 3 | E | |||
| Mount Pocono | PA | 2026-05-09 02:45 | ASOS | 46 | 43 | 87 | 29.90 | 0 | N | |||
| Mount Pocono | PA | 2026-05-09 03:45 | ASOS | 46 | 43 | 87 | 29.91 | 3 | W | |||
| Mount Pocono | PA | 2026-05-09 04:40 | ASOS | 46 | 43 | 87 | 29.90 | 0 | N | |||
| Mount Pocono | PA | 2026-05-09 04:35 | ASOS | 46 | 43 | 87 | 29.90 | 0 | N | |||
| Mount Pocono | PA | 2026-05-09 04:30 | ASOS | 45 | 43 | 93 | 29.90 | 0 | N | |||
| Mount Pocono | PA | 2026-05-09 04:25 | ASOS | 45 | 43 | 93 | 29.90 | 0 | N | |||
| Mount Pocono | PA | 2026-05-09 04:20 | ASOS | 45 | 43 | 93 | 29.90 | 0 | N | |||
| Mount Pocono | PA | 2026-05-09 04:15 | ASOS | 45 | 43 | 93 | 29.90 | 0 | N | |||
| Mount Pocono | PA | 2026-05-09 04:05 | ASOS | 46 | 43 | 87 | 29.91 | 0 | N | |||
| Mount Pocono | PA | 2026-05-09 04:00 | ASOS | 46 | 43 | 87 | 29.91 | 0 | N | |||
| Mount Pocono | PA | 2026-05-09 03:53 | ASOS | 46 | 43 | 89 | 29.91 | 0 | N | |||
| Mount Pocono | PA | 2026-05-09 03:50 | ASOS | 46 | 43 | 87 | 29.91 | 0 | N | |||
| Mount Pocono | PA | 2026-05-09 03:40 | ASOS | 46 | 43 | 87 | 29.91 | 0 | N | |||
| Mount Pocono | PA | 2026-05-09 04:50 | ASOS | 46 | 43 | 87 | 29.90 | 0 | N | |||
| Mount Pocono | PA | 2026-05-09 03:35 | ASOS | 46 | 43 | 87 | 29.91 | 0 | N | |||
| Mount Pocono | PA | 2026-05-09 03:30 | ASOS | 46 | 43 | 87 | 29.91 | 0 | N | |||
| Mount Pocono | PA | 2026-05-09 03:25 | ASOS | 46 | 43 | 87 | 29.91 | 5 | SSE | |||
| Mount Pocono | PA | 2026-05-09 03:20 | ASOS | 46 | 43 | 87 | 29.91 | 5 | SSE | |||
| Mount Pocono | PA | 2026-05-09 03:15 | ASOS | 45 | 43 | 93 | 29.91 | 5 | SSE | |||
| Mount Pocono | PA | 2026-05-09 03:10 | ASOS | 46 | 43 | 87 | 29.90 | 3 | SSE | |||
| Mount Pocono | PA | 2026-05-09 03:05 | ASOS | 45 | 43 | 93 | 29.90 | 3 | S | |||
| Mount Pocono | PA | 2026-05-09 03:00 | ASOS | 45 | 43 | 93 | 29.90 | 3 | SSW | |||
| Mount Pocono | PA | 2026-05-09 02:55 | ASOS | 45 | 43 | 93 | 29.90 | 0 | N | |||
| Mount Pocono | PA | 2026-05-09 02:53 | ASOS | 45 | 42 | 90 | 29.90 | 0 | N | |||
| Mount Pocono | PA | 2026-05-09 02:50 | ASOS | 46 | 43 | 87 | 29.90 | 0 | N | |||
| Mount Pocono | PA | 2026-05-09 04:45 | ASOS | 46 | 43 | 87 | 29.90 | 0 | N | |||
| Mount Pocono | PA | 2026-05-09 04:53 | ASOS | 45 | 43 | 93 | 29.90 | 0 | N | |||
| Mount Pocono | PA | 2026-05-09 07:05 | ASOS | 46 | 43 | 87 | 29.88 | 0 | N | |||
| Mount Pocono | PA | 2026-05-09 06:00 | ASOS | 45 | 43 | 93 | 29.89 | 3 | ESE | |||
| Mount Pocono | PA | 2026-05-09 07:00 | ASOS | 46 | 43 | 87 | 29.88 | 0 | N | |||
| Mount Pocono | PA | 2026-05-09 06:50 | ASOS | 46 | 43 | 87 | 29.89 | 0 | N | |||
| Mount Pocono | PA | 2026-05-09 06:45 | ASOS | 46 | 43 | 87 | 29.88 | 3 | E | |||
| Mount Pocono | PA | 2026-05-09 06:40 | ASOS | 46 | 43 | 87 | 29.88 | 5 | E | |||
| Mount Pocono | PA | 2026-05-09 06:35 | ASOS | 46 | 43 | 87 | 29.88 | 3 | E | |||
| Mount Pocono | PA | 2026-05-09 06:30 | ASOS | 46 | 43 | 87 | 29.88 | 0 | N | |||
| Mount Pocono | PA | 2026-05-09 06:25 | ASOS | 45 | 43 | 93 | 29.88 | 5 | E | |||
| Mount Pocono | PA | 2026-05-09 06:20 | ASOS | 45 | 43 | 93 | 29.88 | 6 | E | |||
| Mount Pocono | PA | 2026-05-09 06:15 | ASOS | 45 | 43 | 93 | 29.89 | 3 | E | |||
| Mount Pocono | PA | 2026-05-09 06:10 | ASOS | 46 | 43 | 87 | 29.89 | 3 | E | |||
| Mount Pocono | PA | 2026-05-09 06:05 | ASOS | 45 | 43 | 93 | 29.89 | 0 | N | |||
| Mount Pocono | PA | 2026-05-09 05:53 | ASOS | 43 | 43 | 100 | 29.90 | 5 | ESE | |||
| Mount Pocono | PA | 2026-05-09 04:55 | ASOS | 45 | 43 | 93 | 29.90 | 0 | N | |||
| Mount Pocono | PA | 2026-05-09 05:50 | ASOS | 43 | 43 | 100 | 29.90 | 5 | ESE | |||
| Mount Pocono | PA | 2026-05-09 05:45 | ASOS | 43 | 43 | 100 | 29.90 | 0 | N | |||
| Mount Pocono | PA | 2026-05-09 05:40 | ASOS | 43 | 43 | 100 | 29.90 | 0 | N | |||
| Mount Pocono | PA | 2026-05-09 05:35 | ASOS | 43 | 43 | 100 | 29.90 | 0 | N | |||
| Mount Pocono | PA | 2026-05-09 05:30 | ASOS | 43 | 43 | 100 | 29.90 | 0 | N | |||
| Mount Pocono | PA | 2026-05-09 05:25 | ASOS | 45 | 43 | 93 | 29.89 | 0 | N | |||
| Mount Pocono | PA | 2026-05-09 05:20 | ASOS | 45 | 43 | 93 | 29.89 | 0 | N | |||
| Mount Pocono | PA | 2026-05-09 05:15 | ASOS | 45 | 43 | 93 | 29.89 | 0 | N | |||
| Mount Pocono | PA | 2026-05-09 05:10 | ASOS | 45 | 43 | 93 | 29.89 | 3 | N | |||
| Mount Pocono | PA | 2026-05-09 05:05 | ASOS | 45 | 43 | 93 | 29.89 | 3 | N | |||
| Mount Pocono | PA | 2026-05-09 05:00 | ASOS | 45 | 45 | 100 | 29.89 | 0 | N | |||
| Mount Pocono | PA | 2026-05-10 02:35 | ASOS | 49 | 48 | 97 | 29.89 | 10 | W |
data collection created in 0.019025802612305 (queried in 0.005406) rendered in: 0.00015711784362793

